createdAt,value
2023-04-14T00:00:28.601Z,99846.48
2023-04-14T00:05:55.934Z,99855.08
2023-04-14T00:11:01.632Z,99865.48
2023-04-14T00:19:59.732Z,99862.70
2023-04-14T00:25:06.556Z,99863.46
2023-04-14T00:30:14.258Z,99864.88
2023-04-14T00:35:19.924Z,99869.16
2023-04-14T00:40:25.793Z,99862.70
2023-04-14T00:45:31.423Z,99858.56
2023-04-14T00:50:37.011Z,99854.48
2023-04-14T00:55:43.342Z,99848.58
2023-04-14T01:00:53.965Z,99846.70
2023-04-14T01:05:59.452Z,99844.17
2023-04-14T01:11:14.214Z,99838.50
2023-04-14T01:16:28.809Z,99840.11
2023-04-14T01:21:46.516Z,99839.50
2023-04-14T01:27:03.283Z,99844.33
2023-04-14T01:32:12.912Z,99848.84
2023-04-14T01:37:25.019Z,99856.61
2023-04-14T01:42:33.989Z,99862.73
2023-04-14T01:47:41.103Z,99868.59
2023-04-14T01:52:52.900Z,99860.03
2023-04-14T01:57:59.333Z,99866.20
2023-04-14T02:03:06.669Z,99859.95
2023-04-14T02:08:14.242Z,99856.38
2023-04-14T02:13:21.556Z,99855.61
2023-04-14T02:18:28.824Z,99860.02
2023-04-14T02:23:34.401Z,99865.63
2023-04-14T02:28:46.728Z,99868.59
2023-04-14T02:33:55.946Z,99862.58
2023-04-14T02:39:06.647Z,99860.38
2023-04-14T02:44:18.656Z,99861.64
2023-04-14T02:49:25.523Z,99862.77
2023-04-14T02:54:34.439Z,99861.95
2023-04-14T02:59:42.721Z,99860.14
2023-04-14T03:04:50.082Z,99859.30
2023-04-14T03:10:03.042Z,99864.95
2023-04-14T03:15:10.083Z,99866.31
2023-04-14T03:20:20.224Z,99871.63
2023-04-14T03:25:28.490Z,99875.02
2023-04-14T03:30:36.770Z,99871.61
2023-04-14T03:35:44.830Z,99872.80
2023-04-14T03:40:51.401Z,99875.16
2023-04-14T03:45:59.647Z,99875.26
2023-04-14T03:51:09.085Z,99875.70
2023-04-14T03:56:16.118Z,99886.02
2023-04-14T04:01:25.962Z,99887.41
2023-04-14T04:06:32.938Z,99888.23
2023-04-14T04:11:39.860Z,99894.03
2023-04-14T04:16:49.926Z,99898.35
2023-04-14T04:21:59.940Z,99897.59
2023-04-14T04:27:11.958Z,99896.52
2023-04-14T04:32:23.840Z,99900.81
2023-04-14T04:37:30.053Z,99902.75
2023-04-14T04:42:40.293Z,99909.09
2023-04-14T04:47:47.177Z,99907.05
2023-04-14T04:52:52.848Z,99916.23
2023-04-14T04:57:58.615Z,99918.22
2023-04-14T05:03:04.340Z,99921.89
2023-04-14T05:08:09.829Z,99916.70
2023-04-14T05:13:16.082Z,99913.05
2023-04-14T05:18:21.604Z,99915.59
2023-04-14T05:23:27.232Z,99912.38
2023-04-14T05:28:32.891Z,99915.08
2023-04-14T05:33:40.176Z,99915.06
2023-04-14T05:38:46.497Z,99915.83
2023-04-14T05:43:52.021Z,99914.59
2023-04-14T05:48:58.140Z,99911.08
2023-04-14T05:54:03.882Z,99916.85
2023-04-14T05:59:09.473Z,99925.02
2023-04-14T06:04:16.106Z,99926.25
2023-04-14T06:09:22.337Z,99927.05
2023-04-14T06:14:27.794Z,99939.11
2023-04-14T06:19:33.465Z,99943.57
2023-04-14T06:24:39.019Z,99944.77
2023-04-14T06:29:44.616Z,99944.38
2023-04-14T06:34:52.614Z,99939.96
2023-04-14T06:39:59.954Z,99939.57
2023-04-14T06:45:06.504Z,99941.74
2023-04-14T06:50:12.617Z,99941.80
2023-04-14T06:55:18.357Z,99935.35
2023-04-14T07:00:24.743Z,99937.20
2023-04-14T07:05:30.502Z,99932.02
2023-04-14T07:10:35.950Z,99918.44
2023-04-14T07:15:47.905Z,99916.88
2023-04-14T07:20:54.262Z,99916.96
2023-04-14T07:26:01.021Z,99917.91
2023-04-14T07:31:10.779Z,99919.29
2023-04-14T07:36:16.431Z,99922.79
2023-04-14T07:41:22.244Z,99921.08
2023-04-14T07:46:27.955Z,99918.48
2023-04-14T07:51:33.654Z,99919.33
2023-04-14T07:56:39.068Z,99916.96
2023-04-14T08:01:45.029Z,99928.94
2023-04-14T08:06:50.686Z,99934.57
2023-04-14T08:11:57.357Z,99936.41
2023-04-14T08:17:02.832Z,99937.61
2023-04-14T08:22:08.438Z,99936.16
2023-04-14T08:27:13.953Z,99929.48
2023-04-14T08:32:19.709Z,99926.30
2023-04-14T08:37:25.706Z,99924.41
2023-04-14T08:42:31.259Z,99933.06
2023-04-14T08:47:39.284Z,99932.29
2023-04-14T08:52:48.930Z,99934.33
2023-04-14T08:57:54.724Z,99937.17
2023-04-14T09:03:00.814Z,99927.45
2023-04-14T09:08:06.942Z,99932.38
2023-04-14T09:13:15.484Z,99921.20
2023-04-14T09:18:21.362Z,99925.25
2023-04-14T09:23:26.985Z,99912.16
2023-04-14T09:28:32.926Z,99904.75
2023-04-14T09:33:44.251Z,99899.55
2023-04-14T09:38:51.697Z,99903.16
2023-04-14T09:44:07.147Z,99904.98
2023-04-14T09:49:12.739Z,99903.72
2023-04-14T09:54:25.748Z,99906.20
2023-04-14T09:59:36.839Z,99903.45
2023-04-14T10:04:42.510Z,99903.80
2023-04-14T10:09:49.597Z,99887.97
2023-04-14T10:14:55.137Z,99883.68
2023-04-14T10:20:00.614Z,99888.06
2023-04-14T10:25:09.133Z,99883.77
2023-04-14T10:30:15.216Z,99883.90
2023-04-14T10:35:21.863Z,99879.66
2023-04-14T10:41:10.718Z,99880.44
2023-04-14T10:46:18.034Z,99885.21
2023-04-14T10:51:36.334Z,99884.79
2023-04-14T10:56:42.260Z,99888.19
2023-04-14T11:01:57.118Z,99884.15
2023-04-14T11:07:10.041Z,99875.61
2023-04-14T11:12:27.357Z,99866.63
2023-04-14T11:17:37.398Z,99862.94
2023-04-14T11:22:45.907Z,99853.49
2023-04-14T11:27:52.148Z,99850.30
2023-04-14T11:32:59.422Z,99846.59
2023-04-14T11:38:09.381Z,99844.33
2023-04-14T11:43:15.137Z,99836.69
2023-04-14T11:48:21.773Z,99841.95
2023-04-14T11:53:27.377Z,99839.88
2023-04-14T11:58:34.060Z,99839.11
2023-04-14T12:03:39.829Z,99827.40
2023-04-14T12:08:51.160Z,99824.81
2023-04-14T12:13:57.169Z,99824.23
2023-04-14T12:19:03.612Z,99817.55
2023-04-14T12:24:09.630Z,99808.19
2023-04-14T12:29:15.231Z,99805.06
2023-04-14T12:34:26.755Z,99806.50
2023-04-14T12:39:32.249Z,99799.22
2023-04-14T12:44:38.945Z,99791.18
2023-04-14T12:49:45.086Z,99784.31
2023-04-14T12:55:08.064Z,99777.97
2023-04-14T13:00:17.775Z,99776.42
2023-04-14T13:05:24.975Z,99773.53
2023-04-14T13:10:30.379Z,99775.55
2023-04-14T13:16:14.123Z,99777.77
2023-04-14T13:21:04.072Z,99785.73
2023-04-14T13:26:09.601Z,99778.70
2023-04-14T13:31:18.331Z,99769.35
2023-04-14T13:36:24.339Z,99774.23
2023-04-14T13:41:30.475Z,99775.63
2023-04-14T13:46:40.807Z,99773.71
2023-04-14T13:51:47.683Z,99769.52
2023-04-14T13:56:53.532Z,99775.34
2023-04-14T14:01:59.158Z,99773.10
2023-04-14T14:07:07.115Z,99766.55
2023-04-14T14:12:13.604Z,99765.15
2023-04-14T14:17:19.191Z,99762.46
2023-04-14T14:22:24.597Z,99764.89
2023-04-14T14:27:30.646Z,99764.24
2023-04-14T14:32:36.577Z,99764.61
2023-04-14T14:37:45.149Z,99767.95
2023-04-14T14:42:53.513Z,99774.27
2023-04-14T14:47:59.526Z,99777.23
2023-04-14T14:53:05.313Z,99772.81
2023-04-14T14:58:12.069Z,99763.27
2023-04-14T15:03:17.927Z,99761.70
2023-04-14T15:08:24.062Z,99767.14
2023-04-14T15:13:30.106Z,99771.40
2023-04-14T15:18:35.521Z,99771.57
2023-04-14T15:23:43.754Z,99775.27
2023-04-14T15:28:49.401Z,99771.50
2023-04-14T15:33:55.066Z,99769.73
2023-04-14T15:39:00.690Z,99768.54
2023-04-14T15:44:06.383Z,99769.84
2023-04-14T15:49:11.829Z,99778.32
2023-04-14T15:54:17.304Z,99778.31
2023-04-14T15:59:25.067Z,99783.17
2023-04-14T16:04:30.998Z,99784.59
2023-04-14T16:09:36.833Z,99788.52
2023-04-14T16:14:43.284Z,99788.72
2023-04-14T16:19:48.815Z,99792.95
2023-04-14T16:24:54.468Z,99800.49
2023-04-14T16:30:00.176Z,99795.48
2023-04-14T16:35:06.415Z,99799.88
2023-04-14T16:40:13.208Z,99809.54
2023-04-14T16:45:19.233Z,99809.46
2023-04-14T16:50:25.354Z,99808.73
2023-04-14T16:55:31.451Z,99815.36
2023-04-14T17:00:37.317Z,99822.05
2023-04-14T17:05:43.539Z,99817.04
2023-04-14T17:10:49.164Z,99826.95
2023-04-14T17:16:02.473Z,99840.98
2023-04-14T17:21:14.175Z,99840.64
2023-04-14T17:26:19.636Z,99844.77
2023-04-14T17:31:25.327Z,99843.96
2023-04-14T17:36:31.133Z,99847.97
2023-04-14T17:41:37.226Z,99845.80
2023-04-14T17:46:43.137Z,99845.12
2023-04-14T17:51:48.711Z,99848.84
2023-04-14T17:56:54.257Z,99854.65
2023-04-14T18:01:59.810Z,99862.11
2023-04-14T18:07:06.433Z,99868.70
2023-04-14T18:12:12.218Z,99875.77
2023-04-14T18:17:18.534Z,99874.23
2023-04-14T18:22:24.166Z,99882.14
2023-04-14T18:32:38.577Z,99883.20
2023-04-14T18:37:46.459Z,99884.66
2023-04-14T18:42:54.158Z,99890.41
2023-04-14T18:47:59.883Z,99894.39
2023-04-14T18:53:05.838Z,99901.84
2023-04-14T18:58:14.399Z,99896.79
2023-04-14T19:03:20.681Z,99896.34
2023-04-14T19:08:27.340Z,99900.60
2023-04-14T19:13:33.107Z,99900.06
2023-04-14T19:18:41.855Z,99904.77
2023-04-14T19:23:47.588Z,99909.15
2023-04-14T19:28:53.863Z,99911.00
2023-04-14T19:33:59.242Z,99908.91
2023-04-14T19:39:05.122Z,99909.19
2023-04-14T19:44:12.156Z,99911.34
2023-04-14T19:49:17.994Z,99910.61
2023-04-14T19:54:23.465Z,99909.52
2023-04-14T19:59:29.618Z,99908.77
2023-04-14T20:04:35.150Z,99901.48
2023-04-14T20:09:44.961Z,99911.77
2023-04-14T20:14:50.747Z,99909.77
2023-04-14T20:19:56.095Z,99906.85
2023-04-14T20:25:01.767Z,99912.56
2023-04-14T20:30:11.136Z,99919.29
2023-04-14T20:35:16.794Z,99926.67
2023-04-14T20:40:22.374Z,99924.14
2023-04-14T20:45:27.818Z,99921.09
2023-04-14T20:50:34.051Z,99916.05
2023-04-14T20:55:41.192Z,99911.38
2023-04-14T21:00:47.213Z,99911.77
2023-04-14T21:05:52.705Z,99905.41
2023-04-14T21:11:15.835Z,99908.11
2023-04-14T21:16:25.933Z,99908.95
2023-04-14T21:21:31.773Z,99900.34
2023-04-14T21:26:37.367Z,99894.86
2023-04-14T21:31:44.135Z,99887.40
2023-04-14T21:36:49.833Z,99884.13
2023-04-14T21:41:57.058Z,99879.77
2023-04-14T21:47:02.893Z,99886.81
2023-04-14T21:52:10.227Z,99898.50
2023-04-14T21:57:15.812Z,99900.24
2023-04-14T22:02:21.817Z,99897.91
2023-04-14T22:07:27.355Z,99897.92
2023-04-14T22:12:34.654Z,99897.21
2023-04-14T22:17:41.274Z,99891.05
2023-04-14T22:22:46.956Z,99887.91
2023-04-14T22:27:52.504Z,99886.48
2023-04-14T22:32:58.041Z,99877.22
2023-04-14T22:38:03.676Z,99879.27
2023-04-14T22:43:09.339Z,99880.12
2023-04-14T22:48:15.288Z,99884.88
2023-04-14T22:53:20.976Z,99888.96
2023-04-14T22:58:27.263Z,99891.13
2023-04-14T23:03:33.196Z,99892.05
2023-04-14T23:08:38.834Z,99892.68
2023-04-14T23:13:44.640Z,99881.38
2023-04-14T23:18:52.302Z,99878.02
2023-04-14T23:23:57.692Z,99881.65
2023-04-14T23:29:03.401Z,99878.90
2023-04-14T23:34:11.184Z,99879.39
2023-04-14T23:39:17.596Z,99882.84
2023-04-14T23:44:23.113Z,99883.91
2023-04-14T23:49:34.849Z,99883.38
2023-04-14T23:54:42.352Z,99885.41
2023-04-14T23:59:47.979Z,99880.93
